createdAt,value
2018-08-09T00:00:21.018Z,92.20
2018-08-09T00:02:50.717Z,92.20
2018-08-09T00:05:20.580Z,92.30
2018-08-09T00:07:55.057Z,92.30
2018-08-09T00:10:24.180Z,92.50
2018-08-09T00:12:53.888Z,92.50
2018-08-09T00:15:22.931Z,92.30
2018-08-09T00:17:52.414Z,92.20
2018-08-09T00:20:23.030Z,92.30
2018-08-09T00:22:52.133Z,92.30
2018-08-09T00:25:21.181Z,92.10
2018-08-09T00:27:50.842Z,92.10
2018-08-09T00:30:19.921Z,92.50
2018-08-09T00:32:48.939Z,92.50
2018-08-09T00:35:17.936Z,92.80
2018-08-09T00:37:47.034Z,92.30
2018-08-09T00:40:16.145Z,92.40
2018-08-09T00:42:45.191Z,92.70
2018-08-09T00:45:14.173Z,92.70
2018-08-09T00:47:43.258Z,92.30
2018-08-09T00:50:12.429Z,92.40
2018-08-09T00:52:41.480Z,92.60
2018-08-09T00:55:10.968Z,92.60
2018-08-09T00:57:40.476Z,92.60
2018-08-09T01:00:09.952Z,92.50
2018-08-09T01:02:38.947Z,92.50
2018-08-09T01:05:08.158Z,92.70
2018-08-09T01:07:37.865Z,92.80
2018-08-09T01:10:07.562Z,93.20
2018-08-09T01:12:36.979Z,93.20
2018-08-09T01:15:06.212Z,93.40
2018-08-09T01:17:35.276Z,93.60
2018-08-09T01:20:05.082Z,93.70
2018-08-09T01:22:34.151Z,93.70
2018-08-09T01:25:04.115Z,93.60
2018-08-09T01:27:33.110Z,93.90
2018-08-09T01:30:02.330Z,93.80
2018-08-09T01:32:31.457Z,94.00
2018-08-09T01:35:01.031Z,94.00
2018-08-09T01:37:30.216Z,94.30
2018-08-09T01:39:59.429Z,94.00
2018-08-09T01:42:39.338Z,94.10
2018-08-09T01:45:08.395Z,93.90
2018-08-09T01:47:37.523Z,93.40
2018-08-09T01:50:06.649Z,93.30
2018-08-09T01:52:35.659Z,93.50
2018-08-09T01:55:04.694Z,93.30
2018-08-09T01:57:34.113Z,93.00
2018-08-09T02:00:03.132Z,92.90
2018-08-09T02:02:33.015Z,92.70
2018-08-09T02:05:02.174Z,92.60
2018-08-09T02:07:34.719Z,92.70
2018-08-09T02:10:04.112Z,93.00
2018-08-09T02:12:33.385Z,92.80
2018-08-09T02:15:02.329Z,92.70
2018-08-09T02:17:32.449Z,92.90
2018-08-09T02:20:01.468Z,93.10
2018-08-09T02:22:30.580Z,93.10
2018-08-09T02:24:59.728Z,92.80
2018-08-09T02:27:28.804Z,92.90
2018-08-09T02:29:58.088Z,92.90
2018-08-09T02:32:27.524Z,92.90
2018-08-09T02:34:56.843Z,93.10
2018-08-09T02:37:25.872Z,93.00
2018-08-09T02:39:54.954Z,93.40
2018-08-09T02:42:24.032Z,93.30
2018-08-09T02:44:53.393Z,93.80
2018-08-09T02:47:22.594Z,93.90
2018-08-09T02:49:52.448Z,93.70
2018-08-09T02:52:21.699Z,93.90
2018-08-09T02:54:50.860Z,94.00
2018-08-09T02:57:20.089Z,94.10
2018-08-09T02:59:49.207Z,94.20
2018-08-09T03:02:18.394Z,93.90
2018-08-09T03:04:47.541Z,94.40
2018-08-09T03:07:16.722Z,94.40
2018-08-09T03:09:45.756Z,94.80
2018-08-09T03:12:15.043Z,94.60
2018-08-09T03:14:44.441Z,94.80
2018-08-09T03:17:13.544Z,94.80
2018-08-09T03:19:43.074Z,94.80
2018-08-09T03:22:15.943Z,95.20
2018-08-09T03:24:45.836Z,95.30
2018-08-09T03:27:15.815Z,95.10
2018-08-09T03:29:45.856Z,95.20
2018-08-09T03:32:15.227Z,94.90
2018-08-09T03:34:45.069Z,94.50
2018-08-09T03:37:14.203Z,94.30
2018-08-09T03:39:43.391Z,94.30
2018-08-09T03:42:12.619Z,94.00
2018-08-09T03:44:41.603Z,93.90
2018-08-09T03:47:11.405Z,93.80
2018-08-09T03:49:40.714Z,93.70
2018-08-09T03:52:09.780Z,93.90
2018-08-09T03:54:38.876Z,93.80
2018-08-09T03:57:08.024Z,93.90
2018-08-09T03:59:37.061Z,94.00
2018-08-09T04:02:06.305Z,94.10
2018-08-09T04:04:35.308Z,94.00
2018-08-09T04:07:04.351Z,93.70
2018-08-09T04:09:33.591Z,93.70
2018-08-09T04:12:02.899Z,93.70
2018-08-09T04:14:32.760Z,93.70
2018-08-09T04:17:05.978Z,94.20
2018-08-09T04:19:35.628Z,94.30
2018-08-09T04:22:04.727Z,94.50
2018-08-09T04:24:33.764Z,94.70
2018-08-09T04:27:02.726Z,94.60
2018-08-09T04:29:32.337Z,94.50
2018-08-09T04:32:01.387Z,94.30
2018-08-09T04:34:30.628Z,93.50
2018-08-09T04:37:02.127Z,92.50
2018-08-09T04:39:34.743Z,92.20
2018-08-09T04:42:05.613Z,92.40
2018-08-09T04:44:34.731Z,91.80
2018-08-09T04:47:04.664Z,91.80
2018-08-09T04:49:33.878Z,91.20
2018-08-09T04:52:03.872Z,91.20
2018-08-09T04:54:32.917Z,91.60
2018-08-09T04:57:01.927Z,91.10
2018-08-09T04:59:31.793Z,91.10
2018-08-09T05:02:00.737Z,91.00
2018-08-09T05:04:29.945Z,91.20
2018-08-09T05:06:58.879Z,90.90
2018-08-09T05:09:28.214Z,91.00
2018-08-09T05:11:57.188Z,91.20
2018-08-09T05:14:26.428Z,91.20
2018-08-09T05:16:56.271Z,91.00
2018-08-09T05:19:25.591Z,90.70
2018-08-09T05:21:54.584Z,90.90
2018-08-09T05:24:23.750Z,90.50
2018-08-09T05:26:52.913Z,91.20
2018-08-09T05:29:22.097Z,91.00
2018-08-09T05:31:51.396Z,90.80
2018-08-09T05:34:21.011Z,91.00
2018-08-09T05:36:50.477Z,90.80
2018-08-09T05:39:19.255Z,90.70
2018-08-09T05:41:47.840Z,90.60
2018-08-09T05:44:16.547Z,90.60
2018-08-09T05:46:45.809Z,90.50
2018-08-09T05:49:14.392Z,90.50
2018-08-09T05:51:44.028Z,90.70
2018-08-09T05:54:12.666Z,90.40
2018-08-09T05:56:41.270Z,90.30
2018-08-09T05:59:09.832Z,90.40
2018-08-09T06:01:38.489Z,90.40
2018-08-09T06:04:07.927Z,90.60
2018-08-09T06:06:36.500Z,90.70
2018-08-09T06:09:07.989Z,90.70
2018-08-09T06:11:37.089Z,90.70
2018-08-09T06:14:05.841Z,90.90
2018-08-09T06:16:35.132Z,90.60
2018-08-09T06:19:04.909Z,90.80
2018-08-09T06:21:34.128Z,91.10
2018-08-09T06:24:03.118Z,91.00
2018-08-09T06:26:32.203Z,90.90
2018-08-09T06:29:01.162Z,91.10
2018-08-09T06:31:30.791Z,91.10
2018-08-09T06:33:59.581Z,91.40
2018-08-09T06:36:28.648Z,91.20
2018-08-09T06:38:57.643Z,91.10
2018-08-09T06:41:26.676Z,91.00
2018-08-09T06:43:55.694Z,90.30
2018-08-09T06:46:24.548Z,90.30
2018-08-09T06:48:53.919Z,90.10
2018-08-09T06:51:22.789Z,90.30
2018-08-09T06:53:51.891Z,90.60
2018-08-09T06:56:20.886Z,90.80
2018-08-09T06:58:49.691Z,90.90
2018-08-09T07:01:18.977Z,91.10
2018-08-09T07:03:47.886Z,91.00
2018-08-09T07:06:17.380Z,90.70
2018-08-09T07:08:46.253Z,90.80
2018-08-09T07:11:15.568Z,90.60
2018-08-09T07:13:44.404Z,90.80
2018-08-09T07:16:13.452Z,90.20
2018-08-09T07:18:42.593Z,89.60
2018-08-09T07:21:11.357Z,89.90
2018-08-09T07:23:40.861Z,90.10
2018-08-09T07:26:10.859Z,87.70
2018-08-09T07:28:40.222Z,87.10
2018-08-09T07:31:09.275Z,88.30
2018-08-09T07:33:38.538Z,88.30
2018-08-09T07:36:07.646Z,88.60
2018-08-09T07:38:36.568Z,89.70
2018-08-09T07:41:05.774Z,90.10
2018-08-09T07:43:35.446Z,90.30
2018-08-09T07:46:04.402Z,90.10
2018-08-09T07:48:33.365Z,90.20
2018-08-09T07:51:02.245Z,89.70
2018-08-09T07:53:31.288Z,89.80
2018-08-09T07:56:00.225Z,89.70
2018-08-09T07:58:29.097Z,87.10
2018-08-09T08:00:57.906Z,86.90
2018-08-09T08:03:26.937Z,87.70
2018-08-09T08:05:55.985Z,87.10
2018-08-09T08:08:24.855Z,87.50
2018-08-09T08:10:53.828Z,86.80
2018-08-09T08:13:22.708Z,86.60
2018-08-09T08:15:51.665Z,87.00
2018-08-09T08:18:20.614Z,86.80
2018-08-09T08:20:49.596Z,84.50
2018-08-09T08:23:18.509Z,83.60
2018-08-09T08:25:48.444Z,85.00
2018-08-09T08:28:17.417Z,85.10
2018-08-09T08:30:46.578Z,84.80
2018-08-09T08:33:15.693Z,84.00
2018-08-09T08:35:45.068Z,83.20
2018-08-09T08:38:14.172Z,82.70
2018-08-09T08:40:43.421Z,83.80
2018-08-09T08:43:12.426Z,82.70
2018-08-09T08:45:42.645Z,81.70
2018-08-09T08:48:12.515Z,80.40
2018-08-09T08:50:41.698Z,81.10
2018-08-09T08:53:10.706Z,79.40
2018-08-09T08:55:40.297Z,79.20
2018-08-09T08:58:09.367Z,78.90
2018-08-09T09:00:38.373Z,79.80
2018-08-09T09:03:07.608Z,79.60
2018-08-09T09:05:36.625Z,77.00
2018-08-09T09:08:06.151Z,77.50
2018-08-09T09:10:35.318Z,76.90
2018-08-09T09:13:04.332Z,75.60
2018-08-09T09:15:33.304Z,75.30
2018-08-09T09:18:02.486Z,75.70
2018-08-09T09:20:31.787Z,75.70
2018-08-09T09:23:00.781Z,74.80
2018-08-09T09:25:29.647Z,75.30
2018-08-09T09:27:58.685Z,74.80
2018-08-09T09:30:27.509Z,75.20
2018-08-09T09:32:56.591Z,77.20
2018-08-09T09:35:26.480Z,74.00
2018-08-09T09:37:55.493Z,74.80
2018-08-09T09:40:24.704Z,74.40
2018-08-09T09:42:53.789Z,73.60
2018-08-09T09:45:23.045Z,75.20
2018-08-09T09:47:56.279Z,76.10
2018-08-09T09:50:25.208Z,73.90
2018-08-09T09:52:54.250Z,75.00
2018-08-09T09:55:23.377Z,72.70
2018-08-09T09:57:52.711Z,72.80
2018-08-09T10:00:26.920Z,70.90
2018-08-09T10:02:56.704Z,71.00
2018-08-09T10:05:25.808Z,70.40
2018-08-09T10:07:54.892Z,70.00
2018-08-09T10:10:23.955Z,68.60
2018-08-09T10:12:53.026Z,67.50
2018-08-09T10:15:22.839Z,68.20
2018-08-09T10:17:52.349Z,66.50
2018-08-09T10:20:24.291Z,67.60
2018-08-09T10:22:54.141Z,66.60
2018-08-09T10:25:23.116Z,66.90
2018-08-09T10:27:52.674Z,65.40
2018-08-09T10:30:22.277Z,64.30
2018-08-09T10:32:51.486Z,63.20
2018-08-09T10:35:20.472Z,64.60
2018-08-09T10:37:49.498Z,63.30
2018-08-09T10:40:18.745Z,64.10
2018-08-09T10:42:47.920Z,62.10
2018-08-09T10:45:16.948Z,62.40
2018-08-09T10:47:46.678Z,64.10
2018-08-09T10:50:16.133Z,63.20
2018-08-09T10:52:45.108Z,63.60
2018-08-09T10:55:14.364Z,64.20
2018-08-09T10:57:43.789Z,63.70
2018-08-09T11:00:13.556Z,63.80
2018-08-09T11:02:42.587Z,63.20
2018-08-09T11:05:11.577Z,63.50
2018-08-09T11:07:41.037Z,63.80
2018-08-09T11:10:10.221Z,63.70
2018-08-09T11:12:39.241Z,64.80
2018-08-09T11:15:11.049Z,63.40
2018-08-09T11:17:40.384Z,63.60
2018-08-09T11:20:10.808Z,61.80
2018-08-09T11:22:40.381Z,61.70
2018-08-09T11:25:10.411Z,62.30
2018-08-09T11:27:39.376Z,61.90
2018-08-09T11:30:09.041Z,61.80
2018-08-09T11:32:39.284Z,61.80
2018-08-09T11:35:08.292Z,61.80
2018-08-09T11:37:38.190Z,61.80
2018-08-09T11:40:07.696Z,61.80
2018-08-09T11:42:36.637Z,61.90
2018-08-09T11:45:06.081Z,61.80
2018-08-09T11:47:35.380Z,61.90
2018-08-09T11:50:09.442Z,61.80
2018-08-09T11:52:38.904Z,61.70
2018-08-09T11:55:08.047Z,61.70
2018-08-09T11:57:37.458Z,62.50
2018-08-09T12:00:08.584Z,62.40
2018-08-09T12:02:38.235Z,62.40
2018-08-09T12:05:08.091Z,62.60
2018-08-09T12:07:37.884Z,62.90
2018-08-09T12:10:07.083Z,63.90
2018-08-09T12:12:36.258Z,63.30
2018-08-09T12:15:07.411Z,62.80
2018-08-09T12:17:36.493Z,61.90
2018-08-09T12:20:06.105Z,62.00
2018-08-09T12:22:35.225Z,62.30
2018-08-09T12:25:04.691Z,63.20
2018-08-09T12:27:33.565Z,64.10
2018-08-09T12:30:02.814Z,68.20
2018-08-09T12:32:32.443Z,80.20
2018-08-09T12:35:01.615Z,85.40
2018-08-09T12:37:30.624Z,87.80
2018-08-09T12:39:59.703Z,90.00
2018-08-09T12:42:28.752Z,90.40
2018-08-09T12:44:58.432Z,91.90
2018-08-09T12:47:27.638Z,90.30
2018-08-09T12:49:57.505Z,92.30
2018-08-09T12:52:26.708Z,94.10
2018-08-09T12:54:56.446Z,96.60
2018-08-09T12:57:25.466Z,96.80
2018-08-09T12:59:54.542Z,99.60
2018-08-09T13:02:23.816Z,99.40
2018-08-09T13:04:52.786Z,99.90
2018-08-09T13:07:22.028Z,99.90
2018-08-09T13:09:50.999Z,99.90
2018-08-09T13:12:20.237Z,99.90
2018-08-09T13:14:49.478Z,99.90
2018-08-09T13:17:18.433Z,99.90
2018-08-09T13:19:48.978Z,99.90
2018-08-09T13:22:17.893Z,99.90
2018-08-09T13:24:46.855Z,99.90
2018-08-09T13:27:15.868Z,99.90
2018-08-09T13:29:44.633Z,99.90
2018-08-09T13:32:13.359Z,99.90
2018-08-09T13:34:42.143Z,99.90
2018-08-09T13:37:15.275Z,99.90
2018-08-09T13:39:44.076Z,99.90
2018-08-09T13:42:13.268Z,99.90
2018-08-09T13:44:42.137Z,99.90
2018-08-09T13:47:10.908Z,99.90
2018-08-09T13:49:39.920Z,99.90
2018-08-09T13:52:10.454Z,99.90
2018-08-09T13:54:49.517Z,99.90
2018-08-09T13:57:18.431Z,99.90
2018-08-09T13:59:47.392Z,99.90
2018-08-09T14:02:16.146Z,99.90
2018-08-09T14:04:45.192Z,99.90
2018-08-09T14:07:14.386Z,99.90
2018-08-09T14:09:43.608Z,99.90
2018-08-09T14:12:12.636Z,99.90
2018-08-09T14:14:41.803Z,99.90
2018-08-09T14:17:11.021Z,99.90
2018-08-09T14:19:39.976Z,99.90
2018-08-09T14:22:09.062Z,99.90
2018-08-09T14:24:38.101Z,99.90
2018-08-09T14:27:07.611Z,99.90
2018-08-09T14:29:36.614Z,99.90
2018-08-09T14:32:06.235Z,99.90
2018-08-09T14:34:35.212Z,99.90
2018-08-09T14:37:04.543Z,99.90
2018-08-09T14:39:33.335Z,99.90
2018-08-09T14:42:01.990Z,99.90
2018-08-09T14:44:30.715Z,99.90
2018-08-09T14:46:59.464Z,99.90
2018-08-09T14:49:28.076Z,99.90
2018-08-09T14:51:57.692Z,99.90
2018-08-09T14:54:26.308Z,99.90
2018-08-09T14:56:54.959Z,99.90
2018-08-09T14:59:23.647Z,99.90
2018-08-09T15:01:52.283Z,99.90
2018-08-09T15:04:21.050Z,99.90
2018-08-09T15:06:49.601Z,99.90
2018-08-09T15:09:18.548Z,99.90
2018-08-09T15:11:47.162Z,99.90
2018-08-09T15:14:15.927Z,99.90
2018-08-09T15:16:44.668Z,99.90
2018-08-09T15:19:13.876Z,99.90
2018-08-09T15:21:42.476Z,99.90
2018-08-09T15:24:11.140Z,99.90
2018-08-09T15:26:39.833Z,99.90
2018-08-09T15:29:08.765Z,99.90
2018-08-09T15:31:37.299Z,99.90
2018-08-09T15:34:06.078Z,99.90
2018-08-09T15:36:34.686Z,99.90
2018-08-09T15:39:03.482Z,99.90
2018-08-09T15:41:32.714Z,99.90
2018-08-09T15:44:01.220Z,99.90
2018-08-09T15:46:29.845Z,99.90
2018-08-09T15:48:59.189Z,99.90
2018-08-09T15:51:28.038Z,99.90
2018-08-09T15:53:57.170Z,99.90
2018-08-09T15:56:27.155Z,99.90
2018-08-09T15:58:55.961Z,99.90
2018-08-09T16:01:24.668Z,99.90
2018-08-09T16:03:53.930Z,99.90
2018-08-09T16:06:23.361Z,99.90
2018-08-09T16:08:52.028Z,99.90
2018-08-09T16:11:21.336Z,99.90
2018-08-09T16:13:50.445Z,99.90
2018-08-09T16:16:19.971Z,99.90
2018-08-09T16:18:49.648Z,99.90
2018-08-09T16:21:19.274Z,99.90
2018-08-09T16:23:48.294Z,99.90
2018-08-09T16:26:17.192Z,99.90
2018-08-09T16:28:46.026Z,99.90
2018-08-09T16:31:14.969Z,99.90
2018-08-09T16:33:44.197Z,99.90
2018-08-09T16:36:12.952Z,99.90
2018-08-09T16:38:41.847Z,99.90
2018-08-09T16:41:10.474Z,99.90
2018-08-09T16:43:39.433Z,99.90
2018-08-09T16:46:09.983Z,99.90
2018-08-09T16:48:38.618Z,99.90
2018-08-09T16:51:12.225Z,99.90
2018-08-09T16:53:41.196Z,99.90
2018-08-09T16:56:10.305Z,99.90
2018-08-09T16:58:39.374Z,99.90
2018-08-09T17:01:08.573Z,99.90
2018-08-09T17:03:37.525Z,98.50
2018-08-09T17:06:06.461Z,97.90
2018-08-09T17:08:39.594Z,98.30
2018-08-09T17:11:08.516Z,96.80
2018-08-09T17:13:37.291Z,97.40
2018-08-09T17:16:08.680Z,97.40
2018-08-09T17:18:39.201Z,99.00
2018-08-09T17:21:09.139Z,95.50
2018-08-09T17:23:38.960Z,96.00
2018-08-09T17:26:07.553Z,95.40
2018-08-09T17:28:36.115Z,94.40
2018-08-09T17:31:04.694Z,93.40
2018-08-09T17:33:33.565Z,92.80
2018-08-09T17:36:02.201Z,92.40
2018-08-09T17:38:30.851Z,91.90
2018-08-09T17:40:59.472Z,92.10
2018-08-09T17:43:28.206Z,92.10
2018-08-09T17:45:56.902Z,91.50
2018-08-09T17:48:25.419Z,90.40
2018-08-09T17:50:54.191Z,90.60
2018-08-09T17:53:22.708Z,90.10
2018-08-09T17:55:51.393Z,90.30
2018-08-09T17:58:19.963Z,89.00
2018-08-09T18:00:48.562Z,90.00
2018-08-09T18:03:17.085Z,89.80
2018-08-09T18:05:45.670Z,90.00
2018-08-09T18:08:14.299Z,90.00
2018-08-09T18:10:42.760Z,90.10
2018-08-09T18:13:11.399Z,90.10
2018-08-09T18:15:39.920Z,90.20
2018-08-09T18:18:08.612Z,90.00
2018-08-09T18:20:38.299Z,89.90
2018-08-09T18:23:07.493Z,91.00
2018-08-09T18:25:36.069Z,91.20
2018-08-09T18:28:04.795Z,91.50
2018-08-09T18:30:33.573Z,91.80
2018-08-09T18:33:02.188Z,92.00
2018-08-09T18:35:30.859Z,92.50
2018-08-09T18:37:59.426Z,92.60
2018-08-09T18:40:28.615Z,92.60
2018-08-09T18:42:57.327Z,92.60
2018-08-09T18:45:25.911Z,93.20
2018-08-09T18:47:54.494Z,93.40
2018-08-09T18:50:27.570Z,93.60
2018-08-09T18:52:56.465Z,93.70
2018-08-09T18:55:25.124Z,94.20
2018-08-09T18:57:53.732Z,94.30
2018-08-09T19:00:24.810Z,94.80
2018-08-09T19:02:53.611Z,94.70
2018-08-09T19:05:22.560Z,94.70
2018-08-09T19:07:51.199Z,94.30
2018-08-09T19:10:22.225Z,93.70
2018-08-09T19:12:51.095Z,93.80
2018-08-09T19:15:19.957Z,94.20
2018-08-09T19:17:48.859Z,94.70
2018-08-09T19:20:20.491Z,94.20
2018-08-09T19:22:49.130Z,94.20
2018-08-09T19:25:17.897Z,93.20
2018-08-09T19:27:46.805Z,93.00
2018-08-09T19:30:17.053Z,92.70
2018-08-09T19:32:45.923Z,93.10
2018-08-09T19:35:15.767Z,93.40
2018-08-09T19:37:44.331Z,94.10
2018-08-09T19:40:15.087Z,94.40
2018-08-09T19:42:43.972Z,94.50
2018-08-09T19:45:15.142Z,94.00
2018-08-09T19:47:43.775Z,94.00
2018-08-09T19:50:14.365Z,94.30
2018-08-09T19:52:43.070Z,94.00
2018-08-09T19:55:13.271Z,94.00
2018-08-09T19:57:43.237Z,93.10
2018-08-09T20:00:16.193Z,92.70
2018-08-09T20:02:46.242Z,92.40
2018-08-09T20:05:15.157Z,91.90
2018-08-09T20:07:43.950Z,91.40
2018-08-09T20:10:13.289Z,90.90
2018-08-09T20:12:42.415Z,91.10
2018-08-09T20:15:14.007Z,91.10
2018-08-09T20:17:43.259Z,91.50
2018-08-09T20:20:13.575Z,91.50
2018-08-09T20:22:42.232Z,90.70
2018-08-09T20:25:12.051Z,90.00
2018-08-09T20:27:41.963Z,89.90
2018-08-09T20:30:12.148Z,90.40
2018-08-09T20:32:41.284Z,90.50
2018-08-09T20:35:14.545Z,90.90
2018-08-09T20:37:44.356Z,91.00
2018-08-09T20:40:13.794Z,91.10
2018-08-09T20:42:43.351Z,91.20
2018-08-09T20:45:13.882Z,90.90
2018-08-09T20:47:42.851Z,91.10
2018-08-09T20:50:14.483Z,90.80
2018-08-09T20:52:44.469Z,91.10
2018-08-09T20:55:13.455Z,90.90
2018-08-09T20:57:44.411Z,91.00
2018-08-09T21:00:16.919Z,91.10
2018-08-09T21:02:46.913Z,90.90
2018-08-09T21:05:19.431Z,90.90
2018-08-09T21:07:49.064Z,90.80
2018-08-09T21:10:18.101Z,90.60
2018-08-09T21:12:46.973Z,90.60
2018-08-09T21:15:16.222Z,90.20
2018-08-09T21:17:44.950Z,89.80
2018-08-09T21:20:14.471Z,90.00
2018-08-09T21:22:44.772Z,89.80
2018-08-09T21:25:13.665Z,89.50
2018-08-09T21:27:42.816Z,90.10
2018-08-09T21:30:14.148Z,89.40
2018-08-09T21:32:43.231Z,89.60
2018-08-09T21:35:12.178Z,89.40
2018-08-09T21:37:41.713Z,89.80
2018-08-09T21:40:11.369Z,90.20
2018-08-09T21:42:40.346Z,90.40
2018-08-09T21:45:11.192Z,90.60
2018-08-09T21:47:39.780Z,90.60
2018-08-09T21:50:10.678Z,90.80
2018-08-09T21:52:39.413Z,90.90
2018-08-09T21:55:08.636Z,90.50
2018-08-09T21:57:37.171Z,90.40
2018-08-09T22:00:14.588Z,90.60
2018-08-09T22:02:43.364Z,90.40
2018-08-09T22:05:17.213Z,90.60
2018-08-09T22:07:51.090Z,90.20
2018-08-09T22:10:24.967Z,90.00
2018-08-09T22:12:59.059Z,89.70
2018-08-09T22:15:32.862Z,90.00
2018-08-09T22:18:06.878Z,89.90
2018-08-09T22:20:40.795Z,89.40
2018-08-09T22:23:09.332Z,89.40
2018-08-09T22:25:38.016Z,88.90
2018-08-09T22:28:06.645Z,89.20
2018-08-09T22:30:35.204Z,88.80
2018-08-09T22:33:03.787Z,89.60
2018-08-09T22:35:32.373Z,90.10
2018-08-09T22:38:01.077Z,89.70
2018-08-09T22:40:29.813Z,90.10
2018-08-09T22:42:58.494Z,90.10
2018-08-09T22:45:27.205Z,90.30
2018-08-09T22:47:55.864Z,90.30
2018-08-09T22:50:24.522Z,90.40
2018-08-09T22:52:53.120Z,90.40
2018-08-09T22:55:21.732Z,90.50
2018-08-09T22:57:51.515Z,90.50
2018-08-09T23:00:22.968Z,90.40
2018-08-09T23:02:52.183Z,90.60
2018-08-09T23:05:21.037Z,90.70
2018-08-09T23:07:50.664Z,90.80
2018-08-09T23:10:19.344Z,91.00
2018-08-09T23:12:48.010Z,91.20
2018-08-09T23:15:16.687Z,91.20
2018-08-09T23:17:45.399Z,91.30
2018-08-09T23:20:13.928Z,91.30
2018-08-09T23:22:42.572Z,91.10
2018-08-09T23:25:39.578Z,91.00
2018-08-09T23:28:08.643Z,91.10
2018-08-09T23:30:37.326Z,90.90
2018-08-09T23:33:05.884Z,91.40
2018-08-09T23:35:34.479Z,91.30
2018-08-09T23:38:02.996Z,91.10
2018-08-09T23:40:31.486Z,91.10
2018-08-09T23:42:59.914Z,91.60
2018-08-09T23:45:28.473Z,91.50
2018-08-09T23:47:57.244Z,91.90
2018-08-09T23:50:25.845Z,92.20
2018-08-09T23:52:55.073Z,94.30
2018-08-09T23:55:23.991Z,96.80
2018-08-09T23:57:52.504Z,98.10
